sensor_id;sensor_type;location;lat;lon;timestamp;pressure;altitude;pressure_sealevel;temperature;humidity
20119;BME280;10220;42.716;23.306;2023-04-20T00:02:05;94886.97;;;12.26;100.00
20119;BME280;10220;42.716;23.306;2023-04-20T00:04:46;94863.41;;;12.27;100.00
20119;BME280;10220;42.716;23.306;2023-04-20T00:07:11;94877.03;;;12.23;100.00
20119;BME280;10220;42.716;23.306;2023-04-20T00:09:40;94883.50;;;12.61;100.00
20119;BME280;10220;42.716;23.306;2023-04-20T00:12:09;94869.94;;;13.22;100.00
20119;BME280;10220;42.716;23.306;2023-04-20T00:14:40;94872.22;;;13.42;100.00
20119;BME280;10220;42.716;23.306;2023-04-20T00:17:05;94897.31;;;12.84;100.00
20119;BME280;10220;42.716;23.306;2023-04-20T00:19:33;94883.59;;;12.95;100.00
20119;BME280;10220;42.716;23.306;2023-04-20T00:22:02;94876.16;;;14.06;100.00
20119;BME280;10220;42.716;23.306;2023-04-20T00:24:30;94874.69;;;13.14;100.00
20119;BME280;10220;42.716;23.306;2023-04-20T00:26:58;94889.53;;;13.25;100.00
20119;BME280;10220;42.716;23.306;2023-04-20T00:29:27;94894.03;;;13.41;100.00
20119;BME280;10220;42.716;23.306;2023-04-20T00:31:52;94890.88;;;13.61;100.00
20119;BME280;10220;42.716;23.306;2023-04-20T00:34:18;94883.34;;;14.10;100.00
20119;BME280;10220;42.716;23.306;2023-04-20T00:36:43;94885.84;;;14.33;100.00
20119;BME280;10220;42.716;23.306;2023-04-20T00:39:09;94887.47;;;13.49;100.00
20119;BME280;10220;42.716;23.306;2023-04-20T00:41:34;94895.28;;;13.38;100.00
20119;BME280;10220;42.716;23.306;2023-04-20T00:44:00;94888.59;;;12.09;100.00
20119;BME280;10220;42.716;23.306;2023-04-20T00:46:31;94847.50;;;12.06;100.00
20119;BME280;10220;42.716;23.306;2023-04-20T00:48:57;94892.25;;;11.90;100.00
20119;BME280;10220;42.716;23.306;2023-04-20T00:51:29;94892.97;;;11.79;100.00
20119;BME280;10220;42.716;23.306;2023-04-20T00:53:56;94889.69;;;12.48;100.00
20119;BME280;10220;42.716;23.306;2023-04-20T00:56:22;94874.91;;;12.60;100.00
20119;BME280;10220;42.716;23.306;2023-04-20T00:58:47;94889.28;;;12.33;100.00
20119;BME280;10220;42.716;23.306;2023-04-20T01:01:13;94884.50;;;12.89;100.00
20119;BME280;10220;42.716;23.306;2023-04-20T01:03:42;94883.84;;;12.64;100.00
20119;BME280;10220;42.716;23.306;2023-04-20T01:06:08;94894.56;;;12.27;100.00
20119;BME280;10220;42.716;23.306;2023-04-20T01:08:33;94889.47;;;12.90;100.00
20119;BME280;10220;42.716;23.306;2023-04-20T01:10:59;94891.78;;;13.21;100.00
20119;BME280;10220;42.716;23.306;2023-04-20T01:13:24;94892.00;;;13.54;100.00
20119;BME280;10220;42.716;23.306;2023-04-20T01:15:53;94884.28;;;13.59;100.00
20119;BME280;10220;42.716;23.306;2023-04-20T01:18:22;94887.00;;;13.64;100.00
20119;BME280;10220;42.716;23.306;2023-04-20T01:20:48;94882.50;;;14.21;100.00
20119;BME280;10220;42.716;23.306;2023-04-20T01:23:16;94875.97;;;14.08;100.00
20119;BME280;10220;42.716;23.306;2023-04-20T01:25:43;94874.88;;;13.69;100.00
20119;BME280;10220;42.716;23.306;2023-04-20T01:28:12;94890.28;;;14.33;100.00
20119;BME280;10220;42.716;23.306;2023-04-20T01:30:38;94880.06;;;13.92;100.00
20119;BME280;10220;42.716;23.306;2023-04-20T01:33:04;94878.47;;;14.03;100.00
20119;BME280;10220;42.716;23.306;2023-04-20T01:35:32;94872.66;;;14.01;100.00
20119;BME280;10220;42.716;23.306;2023-04-20T01:37:57;94863.38;;;14.44;100.00
20119;BME280;10220;42.716;23.306;2023-04-20T01:40:23;94871.63;;;13.74;100.00
20119;BME280;10220;42.716;23.306;2023-04-20T01:42:48;94868.69;;;13.02;100.00
20119;BME280;10220;42.716;23.306;2023-04-20T01:45:13;94878.13;;;12.44;100.00
20119;BME280;10220;42.716;23.306;2023-04-20T01:47:39;94870.72;;;12.48;100.00
20119;BME280;10220;42.716;23.306;2023-04-20T01:50:05;94847.47;;;12.24;100.00
20119;BME280;10220;42.716;23.306;2023-04-20T01:52:36;94863.34;;;11.51;100.00
20119;BME280;10220;42.716;23.306;2023-04-20T01:55:01;94862.69;;;12.20;100.00
20119;BME280;10220;42.716;23.306;2023-04-20T01:57:26;94860.31;;;11.72;100.00
20119;BME280;10220;42.716;23.306;2023-04-20T01:59:52;94860.78;;;12.56;100.00
20119;BME280;10220;42.716;23.306;2023-04-20T02:02:17;94847.19;;;12.43;100.00
20119;BME280;10220;42.716;23.306;2023-04-20T02:04:43;94860.81;;;11.80;100.00
20119;BME280;10220;42.716;23.306;2023-04-20T02:07:13;94860.72;;;11.69;100.00
20119;BME280;10220;42.716;23.306;2023-04-20T02:09:38;94842.00;;;12.14;100.00
20119;BME280;10220;42.716;23.306;2023-04-20T02:12:07;94866.38;;;12.71;100.00
20119;BME280;10220;42.716;23.306;2023-04-20T02:14:32;94858.59;;;12.42;100.00
20119;BME280;10220;42.716;23.306;2023-04-20T02:16:58;94869.34;;;11.98;100.00
20119;BME280;10220;42.716;23.306;2023-04-20T02:19:27;94848.34;;;11.71;100.00
20119;BME280;10220;42.716;23.306;2023-04-20T02:21:53;94876.28;;;12.63;100.00
20119;BME280;10220;42.716;23.306;2023-04-20T02:24:18;94862.41;;;12.69;100.00
20119;BME280;10220;42.716;23.306;2023-04-20T02:26:44;94864.94;;;12.46;100.00
20119;BME280;10220;42.716;23.306;2023-04-20T02:29:09;94862.41;;;12.39;100.00
20119;BME280;10220;42.716;23.306;2023-04-20T02:31:37;94861.31;;;12.47;100.00
20119;BME280;10220;42.716;23.306;2023-04-20T02:34:02;94865.16;;;12.44;100.00
20119;BME280;10220;42.716;23.306;2023-04-20T02:36:30;94879.28;;;12.89;100.00
20119;BME280;10220;42.716;23.306;2023-04-20T02:38:55;94871.16;;;12.16;100.00
20119;BME280;10220;42.716;23.306;2023-04-20T02:41:21;94800.94;;;11.64;100.00
20119;BME280;10220;42.716;23.306;2023-04-20T02:43:46;94866.91;;;12.73;100.00
20119;BME280;10220;42.716;23.306;2023-04-20T02:46:11;94863.59;;;12.14;100.00
20119;BME280;10220;42.716;23.306;2023-04-20T02:48:37;94834.81;;;11.09;100.00
20119;BME280;10220;42.716;23.306;2023-04-20T02:51:02;94857.66;;;11.36;100.00
20119;BME280;10220;42.716;23.306;2023-04-20T02:53:28;94854.50;;;11.34;100.00
20119;BME280;10220;42.716;23.306;2023-04-20T02:55:53;94850.72;;;11.54;100.00
20119;BME280;10220;42.716;23.306;2023-04-20T02:58:19;94852.56;;;12.01;100.00
20119;BME280;10220;42.716;23.306;2023-04-20T03:00:44;94868.41;;;11.39;100.00
20119;BME280;10220;42.716;23.306;2023-04-20T03:03:10;94861.03;;;11.18;100.00
20119;BME280;10220;42.716;23.306;2023-04-20T03:05:35;94836.22;;;11.29;100.00
20119;BME280;10220;42.716;23.306;2023-04-20T03:08:00;94876.97;;;11.40;100.00
20119;BME280;10220;42.716;23.306;2023-04-20T03:10:31;94868.03;;;11.60;100.00
20119;BME280;10220;42.716;23.306;2023-04-20T03:12:56;94860.50;;;10.92;100.00
20119;BME280;10220;42.716;23.306;2023-04-20T03:15:24;94844.28;;;10.72;100.00
20119;BME280;10220;42.716;23.306;2023-04-20T03:17:53;94861.72;;;10.90;100.00
20119;BME280;10220;42.716;23.306;2023-04-20T03:20:18;94852.34;;;11.31;100.00
20119;BME280;10220;42.716;23.306;2023-04-20T03:22:44;94864.72;;;12.18;100.00
20119;BME280;10220;42.716;23.306;2023-04-20T03:25:09;94872.94;;;12.44;100.00
20119;BME280;10220;42.716;23.306;2023-04-20T03:27:35;94865.16;;;12.85;100.00
20119;BME280;10220;42.716;23.306;2023-04-20T03:30:01;94834.41;;;13.05;100.00
20119;BME280;10220;42.716;23.306;2023-04-20T03:32:26;94877.56;;;12.83;100.00
20119;BME280;10220;42.716;23.306;2023-04-20T03:34:52;94858.63;;;11.95;100.00
20119;BME280;10220;42.716;23.306;2023-04-20T03:37:17;94868.25;;;11.59;100.00
20119;BME280;10220;42.716;23.306;2023-04-20T03:39:42;94879.63;;;11.33;100.00
20119;BME280;10220;42.716;23.306;2023-04-20T03:42:08;94872.63;;;11.16;100.00
20119;BME280;10220;42.716;23.306;2023-04-20T03:44:33;94860.94;;;11.07;100.00
20119;BME280;10220;42.716;23.306;2023-04-20T03:46:59;94846.66;;;10.98;100.00
20119;BME280;10220;42.716;23.306;2023-04-20T03:49:24;94868.47;;;10.91;100.00
20119;BME280;10220;42.716;23.306;2023-04-20T03:51:50;94861.19;;;11.41;100.00
20119;BME280;10220;42.716;23.306;2023-04-20T03:54:16;94868.97;;;12.13;100.00
20119;BME280;10220;42.716;23.306;2023-04-20T03:56:41;94871.19;;;11.80;100.00
20119;BME280;10220;42.716;23.306;2023-04-20T03:59:08;94868.31;;;12.17;100.00
20119;BME280;10220;42.716;23.306;2023-04-20T04:01:35;94873.72;;;12.33;100.00
20119;BME280;10220;42.716;23.306;2023-04-20T04:04:02;94879.28;;;12.48;100.00
20119;BME280;10220;42.716;23.306;2023-04-20T04:06:28;94873.94;;;12.73;100.00
20119;BME280;10220;42.716;23.306;2023-04-20T04:08:53;94890.75;;;12.70;100.00
20119;BME280;10220;42.716;23.306;2023-04-20T04:11:21;94874.34;;;12.58;100.00
20119;BME280;10220;42.716;23.306;2023-04-20T04:13:46;94879.91;;;12.32;100.00
20119;BME280;10220;42.716;23.306;2023-04-20T04:16:12;94873.44;;;12.24;100.00
20119;BME280;10220;42.716;23.306;2023-04-20T04:18:42;94854.31;;;11.89;100.00
20119;BME280;10220;42.716;23.306;2023-04-20T04:21:10;94886.72;;;12.74;100.00
20119;BME280;10220;42.716;23.306;2023-04-20T04:23:36;94894.69;;;12.61;100.00
20119;BME280;10220;42.716;23.306;2023-04-20T04:26:02;94873.09;;;12.90;100.00
20119;BME280;10220;42.716;23.306;2023-04-20T04:28:29;94896.09;;;12.75;100.00
20119;BME280;10220;42.716;23.306;2023-04-20T04:30:55;94899.19;;;12.54;100.00
20119;BME280;10220;42.716;23.306;2023-04-20T04:33:21;94887.91;;;12.02;100.00
20119;BME280;10220;42.716;23.306;2023-04-20T04:35:55;94892.00;;;12.09;100.00
20119;BME280;10220;42.716;23.306;2023-04-20T04:38:21;94896.97;;;12.40;100.00
20119;BME280;10220;42.716;23.306;2023-04-20T04:40:49;94888.38;;;13.09;100.00
20119;BME280;10220;42.716;23.306;2023-04-20T04:43:16;94888.34;;;12.57;100.00
20119;BME280;10220;42.716;23.306;2023-04-20T04:45:43;94889.97;;;13.10;100.00
20119;BME280;10220;42.716;23.306;2023-04-20T04:48:09;94910.06;;;13.03;100.00
20119;BME280;10220;42.716;23.306;2023-04-20T04:50:36;94902.06;;;13.28;100.00
20119;BME280;10220;42.716;23.306;2023-04-20T04:53:01;94916.22;;;13.32;100.00
20119;BME280;10220;42.716;23.306;2023-04-20T04:55:27;94906.94;;;12.84;100.00
20119;BME280;10220;42.716;23.306;2023-04-20T04:57:52;94909.94;;;12.87;100.00
20119;BME280;10220;42.716;23.306;2023-04-20T05:00:18;94922.25;;;12.91;100.00
20119;BME280;10220;42.716;23.306;2023-04-20T05:02:43;94912.09;;;13.01;100.00
20119;BME280;10220;42.716;23.306;2023-04-20T05:05:09;94915.88;;;13.40;100.00
20119;BME280;10220;42.716;23.306;2023-04-20T05:07:34;94925.16;;;13.36;100.00
20119;BME280;10220;42.716;23.306;2023-04-20T05:10:00;94932.41;;;13.68;100.00
20119;BME280;10220;42.716;23.306;2023-04-20T05:12:25;94895.34;;;13.89;100.00
20119;BME280;10220;42.716;23.306;2023-04-20T05:14:51;94914.72;;;13.24;100.00
20119;BME280;10220;42.716;23.306;2023-04-20T05:17:17;94900.91;;;13.01;100.00
20119;BME280;10220;42.716;23.306;2023-04-20T05:19:42;94912.47;;;12.76;100.00
20119;BME280;10220;42.716;23.306;2023-04-20T05:22:08;94925.44;;;12.93;100.00
20119;BME280;10220;42.716;23.306;2023-04-20T05:24:33;94909.84;;;13.16;100.00
20119;BME280;10220;42.716;23.306;2023-04-20T05:26:59;94929.84;;;12.64;100.00
20119;BME280;10220;42.716;23.306;2023-04-20T05:29:24;94926.59;;;13.09;100.00
20119;BME280;10220;42.716;23.306;2023-04-20T05:31:50;94928.78;;;13.69;100.00
20119;BME280;10220;42.716;23.306;2023-04-20T05:34:15;94922.56;;;13.70;100.00
20119;BME280;10220;42.716;23.306;2023-04-20T05:36:41;94934.97;;;13.11;100.00
20119;BME280;10220;42.716;23.306;2023-04-20T05:39:06;94921.28;;;12.75;100.00
20119;BME280;10220;42.716;23.306;2023-04-20T05:41:32;94928.09;;;13.62;100.00
20119;BME280;10220;42.716;23.306;2023-04-20T05:43:57;94932.56;;;14.01;100.00
20119;BME280;10220;42.716;23.306;2023-04-20T05:46:25;94937.72;;;13.84;100.00
20119;BME280;10220;42.716;23.306;2023-04-20T05:48:51;94932.59;;;13.21;100.00
20119;BME280;10220;42.716;23.306;2023-04-20T05:51:20;94928.00;;;13.57;100.00
20119;BME280;10220;42.716;23.306;2023-04-20T05:53:46;94930.13;;;13.26;100.00
20119;BME280;10220;42.716;23.306;2023-04-20T05:56:12;94919.59;;;13.09;100.00
20119;BME280;10220;42.716;23.306;2023-04-20T05:58:39;94935.69;;;13.41;100.00
20119;BME280;10220;42.716;23.306;2023-04-20T06:01:05;94934.66;;;13.30;100.00
20119;BME280;10220;42.716;23.306;2023-04-20T06:03:31;94920.25;;;13.16;100.00
20119;BME280;10220;42.716;23.306;2023-04-20T06:05:57;94908.38;;;12.68;100.00
20119;BME280;10220;42.716;23.306;2023-04-20T06:08:23;94932.88;;;11.96;100.00
20119;BME280;10220;42.716;23.306;2023-04-20T06:11:00;94913.22;;;11.46;100.00
20119;BME280;10220;42.716;23.306;2023-04-20T06:13:31;94927.38;;;12.39;100.00
20119;BME280;10220;42.716;23.306;2023-04-20T06:16:00;94885.59;;;12.82;100.00
20119;BME280;10220;42.716;23.306;2023-04-20T06:18:33;94923.31;;;12.73;100.00
20119;BME280;10220;42.716;23.306;2023-04-20T06:20:59;94921.91;;;12.59;100.00
20119;BME280;10220;42.716;23.306;2023-04-20T06:23:28;94909.28;;;12.74;100.00
20119;BME280;10220;42.716;23.306;2023-04-20T06:25:59;94906.03;;;12.49;100.00
20119;BME280;10220;42.716;23.306;2023-04-20T06:28:25;94920.69;;;13.02;100.00
20119;BME280;10220;42.716;23.306;2023-04-20T06:30:50;94921.31;;;13.15;100.00
20119;BME280;10220;42.716;23.306;2023-04-20T06:33:16;94933.63;;;13.54;100.00
20119;BME280;10220;42.716;23.306;2023-04-20T06:35:42;94916.34;;;13.48;100.00
20119;BME280;10220;42.716;23.306;2023-04-20T06:38:14;94932.41;;;13.68;100.00
20119;BME280;10220;42.716;23.306;2023-04-20T06:40:41;94925.09;;;14.04;100.00
20119;BME280;10220;42.716;23.306;2023-04-20T06:43:07;94934.19;;;13.79;100.00
20119;BME280;10220;42.716;23.306;2023-04-20T06:45:32;94937.22;;;12.78;100.00
20119;BME280;10220;42.716;23.306;2023-04-20T06:48:01;94937.44;;;13.06;100.00
20119;BME280;10220;42.716;23.306;2023-04-20T06:50:26;94936.53;;;13.00;100.00
20119;BME280;10220;42.716;23.306;2023-04-20T06:52:52;94931.91;;;13.14;100.00
20119;BME280;10220;42.716;23.306;2023-04-20T06:55:23;94915.38;;;12.86;100.00
20119;BME280;10220;42.716;23.306;2023-04-20T06:58:10;94895.81;;;12.65;100.00
20119;BME280;10220;42.716;23.306;2023-04-20T07:00:36;94933.81;;;12.66;100.00
20119;BME280;10220;42.716;23.306;2023-04-20T07:03:04;94946.09;;;11.94;100.00
20119;BME280;10220;42.716;23.306;2023-04-20T07:05:32;94906.44;;;11.52;100.00
20119;BME280;10220;42.716;23.306;2023-04-20T07:11:38;94950.09;;;12.44;100.00
20119;BME280;10220;42.716;23.306;2023-04-20T07:14:09;94914.47;;;12.15;100.00
20119;BME280;10220;42.716;23.306;2023-04-20T07:16:38;94903.19;;;12.68;100.00
20119;BME280;10220;42.716;23.306;2023-04-20T07:19:03;94919.19;;;12.94;100.00
20119;BME280;10220;42.716;23.306;2023-04-20T07:21:31;94946.19;;;13.68;100.00
20119;BME280;10220;42.716;23.306;2023-04-20T07:23:57;94945.19;;;13.69;100.00
20119;BME280;10220;42.716;23.306;2023-04-20T07:26:24;94935.41;;;13.99;100.00
20119;BME280;10220;42.716;23.306;2023-04-20T07:28:50;94961.19;;;13.09;100.00
20119;BME280;10220;42.716;23.306;2023-04-20T07:31:16;94942.19;;;12.50;100.00
20119;BME280;10220;42.716;23.306;2023-04-20T07:33:41;94945.88;;;12.90;100.00
20119;BME280;10220;42.716;23.306;2023-04-20T07:36:08;94941.19;;;13.21;100.00
20119;BME280;10220;42.716;23.306;2023-04-20T07:38:33;94956.53;;;13.00;100.00
20119;BME280;10220;42.716;23.306;2023-04-20T07:40:58;94942.00;;;12.52;100.00
20119;BME280;10220;42.716;23.306;2023-04-20T07:43:27;94944.88;;;12.91;100.00
20119;BME280;10220;42.716;23.306;2023-04-20T07:49:27;94911.38;;;12.83;100.00
20119;BME280;10220;42.716;23.306;2023-04-20T07:51:52;94942.22;;;13.09;100.00
20119;BME280;10220;42.716;23.306;2023-04-20T07:54:21;94932.81;;;13.31;100.00
20119;BME280;10220;42.716;23.306;2023-04-20T07:56:46;94945.75;;;12.85;100.00
20119;BME280;10220;42.716;23.306;2023-04-20T07:59:12;94922.91;;;12.58;100.00
20119;BME280;10220;42.716;23.306;2023-04-20T08:01:37;94938.50;;;12.58;100.00
20119;BME280;10220;42.716;23.306;2023-04-20T08:04:03;94947.00;;;12.35;100.00
20119;BME280;10220;42.716;23.306;2023-04-20T08:06:33;94926.31;;;12.29;100.00
20119;BME280;10220;42.716;23.306;2023-04-20T08:08:58;94947.13;;;12.40;100.00
20119;BME280;10220;42.716;23.306;2023-04-20T08:11:28;94941.03;;;12.35;100.00
20119;BME280;10220;42.716;23.306;2023-04-20T08:13:54;94954.47;;;12.14;100.00
20119;BME280;10220;42.716;23.306;2023-04-20T08:16:22;94960.09;;;12.58;100.00
20119;BME280;10220;42.716;23.306;2023-04-20T08:18:47;94951.09;;;12.72;100.00
20119;BME280;10220;42.716;23.306;2023-04-20T08:21:15;94946.13;;;12.71;100.00
20119;BME280;10220;42.716;23.306;2023-04-20T08:23:43;94946.31;;;12.58;100.00
20119;BME280;10220;42.716;23.306;2023-04-20T08:26:14;94949.94;;;12.86;100.00
20119;BME280;10220;42.716;23.306;2023-04-20T08:28:40;94945.44;;;12.93;100.00
20119;BME280;10220;42.716;23.306;2023-04-20T08:31:09;94962.78;;;13.10;100.00
20119;BME280;10220;42.716;23.306;2023-04-20T08:33:40;94943.41;;;12.95;100.00
20119;BME280;10220;42.716;23.306;2023-04-20T08:36:05;94947.13;;;12.88;100.00
20119;BME280;10220;42.716;23.306;2023-04-20T08:38:31;94940.50;;;13.03;100.00
20119;BME280;10220;42.716;23.306;2023-04-20T08:40:58;94953.50;;;13.03;100.00
20119;BME280;10220;42.716;23.306;2023-04-20T08:43:24;94954.81;;;12.94;100.00
20119;BME280;10220;42.716;23.306;2023-04-20T08:45:50;94957.63;;;12.63;100.00
20119;BME280;10220;42.716;23.306;2023-04-20T08:48:18;94961.38;;;12.02;100.00
20119;BME280;10220;42.716;23.306;2023-04-20T08:50:49;94944.16;;;11.90;100.00
20119;BME280;10220;42.716;23.306;2023-04-20T08:53:18;94949.75;;;12.05;100.00
20119;BME280;10220;42.716;23.306;2023-04-20T08:55:43;94957.47;;;12.29;100.00
20119;BME280;10220;42.716;23.306;2023-04-20T08:58:08;94965.38;;;12.52;100.00
20119;BME280;10220;42.716;23.306;2023-04-20T09:00:34;94967.63;;;12.30;100.00
20119;BME280;10220;42.716;23.306;2023-04-20T09:02:59;94962.13;;;12.38;100.00
20119;BME280;10220;42.716;23.306;2023-04-20T09:05:29;94956.31;;;12.43;100.00
20119;BME280;10220;42.716;23.306;2023-04-20T09:07:59;94961.22;;;12.15;100.00
20119;BME280;10220;42.716;23.306;2023-04-20T09:10:38;94956.59;;;12.35;100.00
20119;BME280;10220;42.716;23.306;2023-04-20T09:13:04;94957.28;;;12.60;100.00
20119;BME280;10220;42.716;23.306;2023-04-20T09:15:30;94955.81;;;12.93;100.00
20119;BME280;10220;42.716;23.306;2023-04-20T09:17:56;94932.25;;;12.47;100.00
20119;BME280;10220;42.716;23.306;2023-04-20T09:20:30;94953.56;;;12.67;100.00
20119;BME280;10220;42.716;23.306;2023-04-20T09:22:55;94954.81;;;12.65;100.00
20119;BME280;10220;42.716;23.306;2023-04-20T09:25:23;94952.38;;;13.10;100.00
20119;BME280;10220;42.716;23.306;2023-04-20T09:28:00;94951.63;;;13.55;100.00
20119;BME280;10220;42.716;23.306;2023-04-20T09:33:36;94904.09;;;13.60;100.00
20119;BME280;10220;42.716;23.306;2023-04-20T09:36:05;94867.41;;;13.84;100.00
20119;BME280;10220;42.716;23.306;2023-04-20T09:38:30;94921.94;;;14.13;100.00
20119;BME280;10220;42.716;23.306;2023-04-20T09:40:57;94914.72;;;13.24;100.00
20119;BME280;10220;42.716;23.306;2023-04-20T09:43:28;94922.09;;;13.84;100.00
20119;BME280;10220;42.716;23.306;2023-04-20T09:45:55;94897.03;;;14.45;100.00
20119;BME280;10220;42.716;23.306;2023-04-20T09:48:21;94920.09;;;14.25;100.00
20119;BME280;10220;42.716;23.306;2023-04-20T09:50:50;94915.06;;;13.85;100.00
20119;BME280;10220;42.716;23.306;2023-04-20T09:53:19;94894.63;;;13.43;100.00
20119;BME280;10220;42.716;23.306;2023-04-20T09:55:52;94880.03;;;14.15;100.00
20119;BME280;10220;42.716;23.306;2023-04-20T09:58:23;94869.59;;;14.15;100.00
20119;BME280;10220;42.716;23.306;2023-04-20T10:01:09;94932.19;;;14.43;100.00
20119;BME280;10220;42.716;23.306;2023-04-20T10:03:35;94916.75;;;14.69;100.00
20119;BME280;10220;42.716;23.306;2023-04-20T10:06:03;94908.94;;;14.41;100.00
20119;BME280;10220;42.716;23.306;2023-04-20T10:08:39;94912.69;;;15.06;100.00
20119;BME280;10220;42.716;23.306;2023-04-20T10:11:06;94906.69;;;15.71;100.00
20119;BME280;10220;42.716;23.306;2023-04-20T10:13:32;94909.97;;;15.45;100.00
20119;BME280;10220;42.716;23.306;2023-04-20T10:15:58;94893.66;;;15.05;100.00
20119;BME280;10220;42.716;23.306;2023-04-20T10:18:23;94903.78;;;15.34;99.93
20119;BME280;10220;42.716;23.306;2023-04-20T10:21:03;94907.50;;;14.62;100.00
20119;BME280;10220;42.716;23.306;2023-04-20T10:23:29;94908.88;;;14.53;100.00
20119;BME280;10220;42.716;23.306;2023-04-20T10:25:58;94904.72;;;14.52;100.00
20119;BME280;10220;42.716;23.306;2023-04-20T10:28:35;94890.66;;;15.29;100.00
20119;BME280;10220;42.716;23.306;2023-04-20T10:31:06;94886.16;;;15.41;100.00
20119;BME280;10220;42.716;23.306;2023-04-20T10:33:32;94898.72;;;15.98;99.41
20119;BME280;10220;42.716;23.306;2023-04-20T10:35:57;94887.72;;;15.96;98.87
20119;BME280;10220;42.716;23.306;2023-04-20T10:38:34;94901.09;;;15.46;96.40
20119;BME280;10220;42.716;23.306;2023-04-20T10:41:10;94901.56;;;15.10;100.00
20119;BME280;10220;42.716;23.306;2023-04-20T10:43:35;94899.06;;;15.48;100.00
20119;BME280;10220;42.716;23.306;2023-04-20T10:46:21;94896.41;;;16.02;100.00
20119;BME280;10220;42.716;23.306;2023-04-20T10:49:00;94901.03;;;15.79;95.52
20119;BME280;10220;42.716;23.306;2023-04-20T10:51:26;94881.19;;;15.78;93.42
20119;BME280;10220;42.716;23.306;2023-04-20T10:56:36;94875.31;;;16.08;89.82
20119;BME280;10220;42.716;23.306;2023-04-20T10:59:05;94876.94;;;15.93;89.63
20119;BME280;10220;42.716;23.306;2023-04-20T11:01:49;94889.38;;;15.65;94.66
20119;BME280;10220;42.716;23.306;2023-04-20T11:04:28;94888.28;;;15.44;91.96
20119;BME280;10220;42.716;23.306;2023-04-20T11:06:54;94863.38;;;15.75;97.45
20119;BME280;10220;42.716;23.306;2023-04-20T11:09:30;94876.88;;;16.09;92.67
20119;BME280;10220;42.716;23.306;2023-04-20T11:14:23;94878.94;;;17.03;89.93
20119;BME280;10220;42.716;23.306;2023-04-20T11:16:52;94874.50;;;17.03;83.49
20119;BME280;10220;42.716;23.306;2023-04-20T11:19:29;94882.34;;;17.03;82.09
20119;BME280;10220;42.716;23.306;2023-04-20T11:21:55;94861.44;;;17.08;80.18
20119;BME280;10220;42.716;23.306;2023-04-20T11:24:23;94863.41;;;17.59;78.30
20119;BME280;10220;42.716;23.306;2023-04-20T11:26:49;94863.59;;;17.16;76.79
20119;BME280;10220;42.716;23.306;2023-04-20T11:29:37;94867.03;;;17.21;79.95
20119;BME280;10220;42.716;23.306;2023-04-20T11:32:07;94856.94;;;16.99;81.60
20119;BME280;10220;42.716;23.306;2023-04-20T11:34:34;94846.63;;;16.35;80.25
20119;BME280;10220;42.716;23.306;2023-04-20T11:37:07;94869.13;;;16.36;81.82
20119;BME280;10220;42.716;23.306;2023-04-20T11:39:37;94865.72;;;16.35;81.24
20119;BME280;10220;42.716;23.306;2023-04-20T11:42:03;94865.03;;;16.45;83.91
20119;BME280;10220;42.716;23.306;2023-04-20T11:44:29;94858.13;;;16.60;88.59
20119;BME280;10220;42.716;23.306;2023-04-20T11:46:57;94860.50;;;16.35;84.81
20119;BME280;10220;42.716;23.306;2023-04-20T11:49:25;94854.31;;;16.46;85.69
20119;BME280;10220;42.716;23.306;2023-04-20T11:51:51;94857.38;;;16.64;87.50
20119;BME280;10220;42.716;23.306;2023-04-20T11:54:19;94854.56;;;16.71;86.23
20119;BME280;10220;42.716;23.306;2023-04-20T11:56:45;94854.16;;;16.10;80.71
20119;BME280;10220;42.716;23.306;2023-04-20T11:59:11;94858.91;;;15.91;85.92
20119;BME280;10220;42.716;23.306;2023-04-20T12:01:39;94855.38;;;16.02;87.88
20119;BME280;10220;42.716;23.306;2023-04-20T12:04:05;94859.28;;;16.00;90.58
20119;BME280;10220;42.716;23.306;2023-04-20T12:06:30;94862.84;;;15.73;89.51
20119;BME280;10220;42.716;23.306;2023-04-20T12:08:56;94878.00;;;15.54;93.66
20119;BME280;10220;42.716;23.306;2023-04-20T12:11:22;94869.78;;;15.46;93.05
20119;BME280;10220;42.716;23.306;2023-04-20T12:13:48;94865.34;;;15.14;94.47
20119;BME280;10220;42.716;23.306;2023-04-20T12:16:13;94870.63;;;15.19;98.62
20119;BME280;10220;42.716;23.306;2023-04-20T12:18:39;94866.06;;;15.42;100.00
20119;BME280;10220;42.716;23.306;2023-04-20T12:21:05;94871.28;;;15.26;100.00
20119;BME280;10220;42.716;23.306;2023-04-20T12:23:32;94855.63;;;15.26;100.00
20119;BME280;10220;42.716;23.306;2023-04-20T12:25:57;94873.69;;;15.27;100.00
20119;BME280;10220;42.716;23.306;2023-04-20T12:28:23;94860.97;;;15.19;98.57
20119;BME280;10220;42.716;23.306;2023-04-20T12:30:48;94848.75;;;15.20;98.92
20119;BME280;10220;42.716;23.306;2023-04-20T12:33:14;94860.34;;;14.96;97.38
20119;BME280;10220;42.716;23.306;2023-04-20T12:35:40;94842.81;;;14.91;100.00
20119;BME280;10220;42.716;23.306;2023-04-20T12:38:05;94847.31;;;15.45;100.00
20119;BME280;10220;42.716;23.306;2023-04-20T12:40:31;94834.03;;;15.89;100.00
20119;BME280;10220;42.716;23.306;2023-04-20T12:42:57;94829.09;;;16.14;100.00
20119;BME280;10220;42.716;23.306;2023-04-20T12:45:22;94838.63;;;16.46;99.71
20119;BME280;10220;42.716;23.306;2023-04-20T12:47:48;94839.28;;;16.58;93.84
20119;BME280;10220;42.716;23.306;2023-04-20T12:50:13;94838.34;;;16.69;88.92
20119;BME280;10220;42.716;23.306;2023-04-20T12:52:42;94831.22;;;16.64;81.78
20119;BME280;10220;42.716;23.306;2023-04-20T12:55:07;94844.03;;;16.92;79.37
20119;BME280;10220;42.716;23.306;2023-04-20T12:57:33;94823.53;;;16.79;80.49